Time;durP1;ratioP1;P1;durP2;ratioP2;P2;SDS_P1;SDS_P2;PMS_P1;PMS_P2;Temp;Humidity;BMP_temperature;BMP_pressure;BME280_temperature;BME280_humidity;BME280_pressure;Samples;Min_cycle;Max_cycle;Signal;HPM_P1;HPM_P2
2023/08/28 00:00:29;;;;;;;2.25;1.90;;;;;;;;;;5061940;28;20069;-75
2023/08/28 00:02:55;;;;;;;1.80;1.70;;;;;;;;;;4989056;28;20042;-75
2023/08/28 00:05:20;;;;;;;2.72;1.80;;;;;;;;;;4987145;28;20053;-75
2023/08/28 00:07:45;;;;;;;2.83;2.03;;;;;;;;;;4996238;28;20041;-75
2023/08/28 00:10:11;;;;;;;1.95;1.83;;;;;;;;;;4990261;28;20030;-75
2023/08/28 00:12:40;;;;;;;5.15;2.10;;;;;;;;;;4986604;28;20042;-75
2023/08/28 00:15:07;;;;;;;3.30;2.30;;;;;;;;;;5056702;28;20074;-75
2023/08/28 00:17:32;;;;;;;3.95;2.17;;;;;;;;;;4994185;28;20061;-75
2023/08/28 00:19:57;;;;;;;4.18;2.67;;;;;;;;;;4991462;28;20461;-75
2023/08/28 00:22:23;;;;;;;3.15;2.20;;;;;;;;;;4990140;28;20087;-75
2023/08/28 00:24:48;;;;;;;2.33;2.08;;;;;;;;;;4994746;28;20038;-75
2023/08/28 00:27:14;;;;;;;3.63;2.33;;;;;;;;;;4986818;28;20362;-75
2023/08/28 00:29:39;;;;;;;3.15;2.38;;;;;;;;;;4989888;28;20045;-75
2023/08/28 00:32:05;;;;;;;3.30;2.30;;;;;;;;;;4986843;28;20060;-75
2023/08/28 00:34:30;;;;;;;2.40;2.00;;;;;;;;;;5066887;28;20038;-75
2023/08/28 00:36:55;;;;;;;2.85;2.20;;;;;;;;;;5002214;28;20162;-75
2023/08/28 00:39:20;;;;;;;2.95;2.17;;;;;;;;;;5001730;28;20048;-75
2023/08/28 00:41:46;;;;;;;3.00;2.15;;;;;;;;;;5003467;28;20507;-75
2023/08/28 00:44:11;;;;;;;3.40;2.85;;;;;;;;;;5065204;28;20326;-76
2023/08/28 00:46:36;;;;;;;4.10;2.45;;;;;;;;;;4999550;28;20480;-75
2023/08/28 00:49:02;;;;;;;2.67;2.20;;;;;;;;;;5003039;28;20030;-76
2023/08/28 00:51:28;;;;;;;4.88;2.65;;;;;;;;;;4991827;28;20045;-75
2023/08/28 00:53:53;;;;;;;3.35;2.30;;;;;;;;;;4993059;28;20022;-76
2023/08/28 00:56:19;;;;;;;2.58;2.25;;;;;;;;;;4996709;28;20370;-75
2023/08/28 00:58:44;;;;;;;8.18;2.33;;;;;;;;;;4986478;28;20425;-75
2023/08/28 01:01:10;;;;;;;7.88;2.47;;;;;;;;;;4995413;28;20034;-75
2023/08/28 01:03:35;;;;;;;5.03;2.20;;;;;;;;;;5001887;28;20033;-75
2023/08/28 01:06:31;;;;;;;3.63;2.30;;;;;;;;;;5000932;28;20065;-75
2023/08/28 01:09:13;;;;;;;4.20;2.53;;;;;;;;;;4996446;28;20087;-75
2023/08/28 01:11:48;;;;;;;2.63;2.17;;;;;;;;;;5000920;28;20128;-75
2023/08/28 01:14:26;;;;;;;2.42;2.20;;;;;;;;;;4999126;28;20064;-75
2023/08/28 01:16:56;;;;;;;3.28;2.08;;;;;;;;;;4999180;28;20057;-75
2023/08/28 01:19:33;;;;;;;2.35;2.10;;;;;;;;;;5069604;28;20034;-75
2023/08/28 01:22:18;;;;;;;5.05;2.70;;;;;;;;;;4998349;28;20057;-75
2023/08/28 01:24:49;;;;;;;5.32;2.40;;;;;;;;;;5049099;28;20042;-75
2023/08/28 01:27:16;;;;;;;3.80;2.60;;;;;;;;;;4999121;28;20409;-75
2023/08/28 01:29:41;;;;;;;4.18;3.13;;;;;;;;;;5005613;28;20096;-75
2023/08/28 01:32:06;;;;;;;4.28;3.42;;;;;;;;;;4999149;28;20041;-75
2023/08/28 01:34:32;;;;;;;6.10;3.55;;;;;;;;;;5007876;28;20083;-75
2023/08/28 01:37:08;;;;;;;6.88;3.55;;;;;;;;;;4999094;28;20061;-75
2023/08/28 01:39:47;;;;;;;5.97;3.90;;;;;;;;;;5004317;28;20072;-75
2023/08/28 01:42:13;;;;;;;5.15;3.70;;;;;;;;;;4986034;28;21553;-75
2023/08/28 01:44:39;;;;;;;8.02;4.20;;;;;;;;;;4985037;28;20122;-75
2023/08/28 01:47:05;;;;;;;6.63;4.15;;;;;;;;;;4997170;28;20079;-75
2023/08/28 01:49:32;;;;;;;5.32;3.80;;;;;;;;;;4995719;28;21470;-75
2023/08/28 01:51:58;;;;;;;5.03;4.18;;;;;;;;;;5063439;28;20049;-75
2023/08/28 01:54:24;;;;;;;7.28;4.22;;;;;;;;;;4988975;28;20034;-73
2023/08/28 01:56:49;;;;;;;6.65;3.70;;;;;;;;;;4997356;28;20022;-75
2023/08/28 01:59:15;;;;;;;5.72;3.78;;;;;;;;;;5057506;28;20069;-74
2023/08/28 02:01:40;;;;;;;5.95;4.05;;;;;;;;;;4997789;28;20036;-75
2023/08/28 02:04:06;;;;;;;10.30;4.40;;;;;;;;;;4997472;28;20042;-75
2023/08/28 02:06:32;;;;;;;9.75;4.30;;;;;;;;;;4998353;28;20184;-75
2023/08/28 02:08:57;;;;;;;10.27;4.75;;;;;;;;;;5061827;28;20017;-75
2023/08/28 02:11:22;;;;;;;6.43;4.47;;;;;;;;;;5006487;28;20133;-75
2023/08/28 02:13:48;;;;;;;6.93;4.50;;;;;;;;;;5002690;28;20360;-75
2023/08/28 02:16:13;;;;;;;7.22;4.50;;;;;;;;;;4994852;28;20033;-75
2023/08/28 02:18:39;;;;;;;7.40;4.65;;;;;;;;;;4993832;28;20522;-75
2023/08/28 02:21:04;;;;;;;6.90;5.05;;;;;;;;;;4993599;28;20565;-75
2023/08/28 02:23:30;;;;;;;6.82;4.80;;;;;;;;;;4992555;28;20061;-75
2023/08/28 02:25:55;;;;;;;10.38;4.80;;;;;;;;;;5000042;28;20041;-74
2023/08/28 02:28:21;;;;;;;6.70;4.45;;;;;;;;;;4995702;28;20045;-74
2023/08/28 02:30:47;;;;;;;7.15;3.65;;;;;;;;;;4994075;28;20049;-75
2023/08/28 02:33:15;;;;;;;7.75;3.83;;;;;;;;;;4994758;28;20466;-75
2023/08/28 02:35:41;;;;;;;9.07;3.42;;;;;;;;;;4985596;28;20041;-75
2023/08/28 02:38:08;;;;;;;5.53;3.13;;;;;;;;;;4990615;28;20038;-75
2023/08/28 02:40:35;;;;;;;3.10;2.60;;;;;;;;;;5062943;28;20412;-75
2023/08/28 02:43:05;;;;;;;3.10;2.50;;;;;;;;;;4988903;28;20132;-74
2023/08/28 02:45:31;;;;;;;3.83;2.38;;;;;;;;;;4986153;28;20065;-75
2023/08/28 02:47:56;;;;;;;2.92;2.53;;;;;;;;;;4989826;28;20091;-74
2023/08/28 02:50:22;;;;;;;3.20;2.90;;;;;;;;;;4989608;28;20081;-75
2023/08/28 02:52:47;;;;;;;3.67;3.10;;;;;;;;;;5057618;28;20050;-75
2023/08/28 02:55:12;;;;;;;3.15;2.95;;;;;;;;;;4994271;28;20113;-75
2023/08/28 02:57:37;;;;;;;4.55;3.10;;;;;;;;;;5003798;28;20476;-75
2023/08/28 03:00:04;;;;;;;2.70;2.50;;;;;;;;;;4993855;28;20118;-74
2023/08/28 03:02:30;;;;;;;5.18;3.10;;;;;;;;;;4994200;28;20080;-75
2023/08/28 03:04:55;;;;;;;2.95;2.63;;;;;;;;;;4991268;28;20034;-75
2023/08/28 03:07:21;;;;;;;3.83;2.88;;;;;;;;;;4985080;28;20035;-75
2023/08/28 03:09:47;;;;;;;3.10;2.55;;;;;;;;;;4985946;28;20033;-75
2023/08/28 03:12:12;;;;;;;2.97;2.67;;;;;;;;;;5002707;28;20105;-75
2023/08/28 03:14:37;;;;;;;3.03;2.65;;;;;;;;;;4986858;28;20551;-75
2023/08/28 03:17:03;;;;;;;3.15;2.80;;;;;;;;;;4996020;28;20032;-75
2023/08/28 03:19:28;;;;;;;4.05;2.95;;;;;;;;;;5000616;28;20127;-75
2023/08/28 03:21:53;;;;;;;4.40;2.85;;;;;;;;;;5002575;28;20113;-75
2023/08/28 03:24:19;;;;;;;5.85;2.58;;;;;;;;;;5000820;28;20109;-75
2023/08/28 03:26:44;;;;;;;4.55;2.45;;;;;;;;;;5069554;28;20029;-74
2023/08/28 03:29:09;;;;;;;2.83;2.63;;;;;;;;;;4995001;28;20117;-76
2023/08/28 03:31:34;;;;;;;4.00;2.72;;;;;;;;;;5060775;28;20519;-75
2023/08/28 03:34:00;;;;;;;4.40;2.72;;;;;;;;;;4999216;28;20095;-75
2023/08/28 03:36:25;;;;;;;5.35;3.13;;;;;;;;;;5000605;28;20810;-75
2023/08/28 03:38:51;;;;;;;11.57;3.17;;;;;;;;;;5060899;28;20102;-75
2023/08/28 03:41:16;;;;;;;3.28;2.97;;;;;;;;;;4997575;28;20064;-75
2023/08/28 03:43:41;;;;;;;3.28;2.97;;;;;;;;;;5012434;28;20132;-75
2023/08/28 03:46:07;;;;;;;3.20;2.67;;;;;;;;;;4992877;28;21381;-76
2023/08/28 03:48:33;;;;;;;6.63;3.17;;;;;;;;;;4991882;28;20058;-75
2023/08/28 03:50:58;;;;;;;3.83;2.67;;;;;;;;;;5002149;28;20087;-75
2023/08/28 03:53:23;;;;;;;3.30;3.00;;;;;;;;;;4998961;28;20031;-75
2023/08/28 03:55:49;;;;;;;3.10;2.83;;;;;;;;;;4987936;28;20074;-75
2023/08/28 03:58:15;;;;;;;6.03;3.28;;;;;;;;;;5048175;28;20121;-76
2023/08/28 04:00:40;;;;;;;3.42;3.10;;;;;;;;;;4983819;28;20042;-75
2023/08/28 04:03:06;;;;;;;5.35;3.10;;;;;;;;;;4985959;28;20075;-75
2023/08/28 04:05:35;;;;;;;5.05;3.10;;;;;;;;;;4994196;28;20087;-75
2023/08/28 04:08:00;;;;;;;3.63;3.10;;;;;;;;;;4989084;28;20042;-76
2023/08/28 04:10:25;;;;;;;4.30;2.97;;;;;;;;;;5058543;28;20061;-76
2023/08/28 04:12:50;;;;;;;4.13;3.38;;;;;;;;;;4990527;28;20042;-75
2023/08/28 04:15:16;;;;;;;6.45;3.38;;;;;;;;;;5057557;28;20022;-76
2023/08/28 04:17:41;;;;;;;3.53;3.10;;;;;;;;;;4985976;28;20034;-75
2023/08/28 04:20:15;;;;;;;4.18;2.80;;;;;;;;;;4986888;28;20046;-76
2023/08/28 04:22:43;;;;;;;3.40;3.10;;;;;;;;;;4985814;28;20466;-76
2023/08/28 04:25:10;;;;;;;3.58;3.10;;;;;;;;;;4989131;28;20391;-76
2023/08/28 04:27:36;;;;;;;3.88;3.35;;;;;;;;;;4990854;28;20034;-76
2023/08/28 04:30:02;;;;;;;5.85;3.25;;;;;;;;;;4989065;28;20091;-76
2023/08/28 04:32:28;;;;;;;3.67;3.30;;;;;;;;;;4995592;28;20053;-76
2023/08/28 04:34:53;;;;;;;4.22;3.70;;;;;;;;;;4979955;28;20400;-76
2023/08/28 04:37:18;;;;;;;5.13;4.20;;;;;;;;;;4992310;28;20121;-76
2023/08/28 04:39:43;;;;;;;5.50;3.60;;;;;;;;;;4978979;28;20103;-76
2023/08/28 04:42:14;;;;;;;4.38;3.20;;;;;;;;;;4987022;28;20062;-75
2023/08/28 04:44:39;;;;;;;5.40;3.25;;;;;;;;;;4981537;28;20061;-77
2023/08/28 04:47:05;;;;;;;5.90;3.47;;;;;;;;;;5053376;28;20051;-76
2023/08/28 04:49:30;;;;;;;3.88;2.97;;;;;;;;;;4988739;28;20049;-77
2023/08/28 04:51:55;;;;;;;5.78;3.78;;;;;;;;;;4985065;28;20069;-76
2023/08/28 04:54:21;;;;;;;4.35;3.05;;;;;;;;;;4986692;28;20029;-76
2023/08/28 04:56:46;;;;;;;4.28;3.22;;;;;;;;;;4988363;28;20033;-77
2023/08/28 04:59:12;;;;;;;4.50;3.72;;;;;;;;;;4987044;28;20039;-77
2023/08/28 05:01:37;;;;;;;6.50;3.60;;;;;;;;;;4991637;28;20556;-77
2023/08/28 05:04:03;;;;;;;4.38;3.38;;;;;;;;;;4982937;28;20176;-77
2023/08/28 05:06:28;;;;;;;3.67;3.28;;;;;;;;;;5054818;28;20042;-77
2023/08/28 05:08:54;;;;;;;5.38;3.63;;;;;;;;;;4987692;28;20015;-77
2023/08/28 05:11:19;;;;;;;4.00;3.40;;;;;;;;;;4981397;28;20030;-77
2023/08/28 05:13:44;;;;;;;6.32;4.45;;;;;;;;;;5060606;28;20041;-78
2023/08/28 05:16:10;;;;;;;6.30;4.25;;;;;;;;;;4998191;28;20026;-77
2023/08/28 05:18:35;;;;;;;8.15;3.92;;;;;;;;;;4998446;28;20047;-76
2023/08/28 05:21:01;;;;;;;6.38;4.18;;;;;;;;;;5000086;28;20022;-76
2023/08/28 05:23:26;;;;;;;6.13;4.38;;;;;;;;;;5001340;28;20447;-76
2023/08/28 05:25:52;;;;;;;10.13;4.72;;;;;;;;;;5067147;28;20053;-76
2023/08/28 05:28:17;;;;;;;6.63;3.95;;;;;;;;;;5055341;28;20119;-76
2023/08/28 05:30:43;;;;;;;4.10;3.70;;;;;;;;;;5002466;28;20111;-76
2023/08/28 05:33:08;;;;;;;4.63;3.83;;;;;;;;;;4997997;28;20037;-76
2023/08/28 05:35:33;;;;;;;5.53;3.97;;;;;;;;;;5064507;28;20029;-76
2023/08/28 05:37:58;;;;;;;5.15;3.83;;;;;;;;;;4996950;28;20128;-76
2023/08/28 05:40:24;;;;;;;5.53;3.92;;;;;;;;;;5069025;28;20549;-76
2023/08/28 05:42:49;;;;;;;13.70;5.10;;;;;;;;;;4995710;28;20038;-76
2023/08/28 05:45:14;;;;;;;10.27;4.90;;;;;;;;;;4998167;28;20053;-76
2023/08/28 05:47:40;;;;;;;5.63;4.53;;;;;;;;;;4993449;28;20513;-76
2023/08/28 05:50:07;;;;;;;5.03;4.05;;;;;;;;;;5066670;28;20519;-76
2023/08/28 05:52:32;;;;;;;9.55;4.88;;;;;;;;;;4999398;28;20456;-76
2023/08/28 05:54:57;;;;;;;9.98;5.78;;;;;;;;;;4998751;28;20103;-76
2023/08/28 05:57:23;;;;;;;6.38;5.38;;;;;;;;;;4997795;28;20049;-76
2023/08/28 05:59:50;;;;;;;9.00;5.25;;;;;;;;;;4997410;28;20671;-76
2023/08/28 06:02:15;;;;;;;10.35;5.95;;;;;;;;;;4991261;28;20564;-76
2023/08/28 06:04:45;;;;;;;12.85;5.82;;;;;;;;;;4995387;28;20039;-76
2023/08/28 06:07:10;;;;;;;4.80;4.28;;;;;;;;;;4999176;28;20124;-76
2023/08/28 06:09:35;;;;;;;7.97;5.07;;;;;;;;;;5067166;28;20109;-76
2023/08/28 06:12:01;;;;;;;7.90;5.10;;;;;;;;;;4998994;28;20020;-76
2023/08/28 06:14:26;;;;;;;7.03;4.78;;;;;;;;;;4994976;28;20046;-76
2023/08/28 06:16:51;;;;;;;5.00;4.15;;;;;;;;;;4997034;28;20503;-76
2023/08/28 06:19:16;;;;;;;4.82;4.43;;;;;;;;;;5000928;28;20484;-77
2023/08/28 06:21:44;;;;;;;7.65;3.95;;;;;;;;;;5001278;28;20066;-76
2023/08/28 06:24:11;;;;;;;5.65;4.53;;;;;;;;;;5003193;28;20053;-76
2023/08/28 06:26:36;;;;;;;6.18;4.10;;;;;;;;;;4999255;28;20974;-76
2023/08/28 06:29:02;;;;;;;4.07;3.72;;;;;;;;;;4997260;28;20065;-76
2023/08/28 06:31:28;;;;;;;4.18;3.65;;;;;;;;;;4999403;28;20030;-76
2023/08/28 06:33:53;;;;;;;3.85;3.38;;;;;;;;;;5067861;28;20036;-76
2023/08/28 06:36:19;;;;;;;8.63;3.55;;;;;;;;;;4999975;28;20034;-76
2023/08/28 06:38:44;;;;;;;4.82;3.92;;;;;;;;;;5000272;28;20015;-75
2023/08/28 06:41:09;;;;;;;9.32;4.10;;;;;;;;;;5001105;28;20401;-76
2023/08/28 06:43:35;;;;;;;3.78;3.45;;;;;;;;;;4996134;28;20381;-76
2023/08/28 06:46:00;;;;;;;8.32;3.75;;;;;;;;;;5001329;28;20034;-76
2023/08/28 06:48:25;;;;;;;4.32;3.60;;;;;;;;;;4995792;28;20595;-77
2023/08/28 06:50:51;;;;;;;2.72;2.53;;;;;;;;;;4998383;28;20033;-76
2023/08/28 06:53:17;;;;;;;5.80;3.33;;;;;;;;;;5006132;28;20034;-77
2023/08/28 06:55:42;;;;;;;3.70;3.17;;;;;;;;;;5001065;28;20034;-76
2023/08/28 06:58:08;;;;;;;3.22;2.95;;;;;;;;;;5064016;28;20061;-76
2023/08/28 07:00:33;;;;;;;2.60;2.40;;;;;;;;;;5001665;28;20048;-76
2023/08/28 07:02:58;;;;;;;2.75;2.40;;;;;;;;;;5003281;28;20103;-76
2023/08/28 07:05:24;;;;;;;2.50;2.30;;;;;;;;;;5005531;28;20040;-76
2023/08/28 07:07:49;;;;;;;2.50;2.40;;;;;;;;;;5003200;28;20038;-76
2023/08/28 07:10:14;;;;;;;2.92;2.70;;;;;;;;;;5070753;28;20862;-76
2023/08/28 07:12:39;;;;;;;2.40;2.15;;;;;;;;;;4998628;28;20681;-76
2023/08/28 07:15:25;;;;;;;2.92;2.65;;;;;;;;;;4996245;28;20037;-76
2023/08/28 07:17:50;;;;;;;2.92;2.60;;;;;;;;;;5000131;28;20022;-76
2023/08/28 07:20:15;;;;;;;3.92;3.22;;;;;;;;;;4992122;28;20110;-75
2023/08/28 07:22:41;;;;;;;6.03;2.80;;;;;;;;;;4998859;28;20041;-76
2023/08/28 07:25:07;;;;;;;3.25;2.95;;;;;;;;;;5065011;28;20121;-76
2023/08/28 07:27:32;;;;;;;3.20;3.00;;;;;;;;;;4992569;28;20035;-76
2023/08/28 07:29:58;;;;;;;4.78;2.55;;;;;;;;;;4989705;28;20049;-76
2023/08/28 07:32:24;;;;;;;9.15;3.10;;;;;;;;;;4994128;28;20057;-76
2023/08/28 07:34:49;;;;;;;3.58;2.70;;;;;;;;;;4985053;28;20048;-77
2023/08/28 07:37:14;;;;;;;2.00;1.90;;;;;;;;;;4975580;28;20038;-75
2023/08/28 07:39:40;;;;;;;2.08;1.98;;;;;;;;;;5047534;28;20129;-76
2023/08/28 07:42:05;;;;;;;1.85;1.75;;;;;;;;;;4990398;28;20034;-75
2023/08/28 07:44:31;;;;;;;1.95;1.85;;;;;;;;;;4992998;28;20470;-76
2023/08/28 07:46:56;;;;;;;2.53;2.33;;;;;;;;;;4994182;28;20499;-76
2023/08/28 07:49:21;;;;;;;2.10;1.88;;;;;;;;;;4986802;28;20591;-76
2023/08/28 07:51:47;;;;;;;2.25;1.77;;;;;;;;;;4991675;28;20062;-75
2023/08/28 07:54:12;;;;;;;1.98;1.80;;;;;;;;;;4997221;28;20017;-75
2023/08/28 07:56:37;;;;;;;5.43;2.20;;;;;;;;;;4999856;28;20029;-76
2023/08/28 07:59:04;;;;;;;2.17;1.70;;;;;;;;;;5000868;28;20046;-76
2023/08/28 08:01:30;;;;;;;2.03;1.88;;;;;;;;;;4994009;28;20120;-76
2023/08/28 08:03:56;;;;;;;4.85;2.45;;;;;;;;;;4997816;28;20456;-75
2023/08/28 08:06:22;;;;;;;1.90;1.70;;;;;;;;;;5000716;28;20057;-76
2023/08/28 08:08:48;;;;;;;8.40;2.03;;;;;;;;;;5000737;28;20494;-75
2023/08/28 08:11:13;;;;;;;2.03;1.92;;;;;;;;;;5002715;28;20416;-75
2023/08/28 08:13:38;;;;;;;1.83;1.67;;;;;;;;;;4996550;28;20044;-76
2023/08/28 08:16:07;;;;;;;2.80;2.00;;;;;;;;;;4992954;28;20038;-75
2023/08/28 08:18:32;;;;;;;2.10;1.52;;;;;;;;;;4984644;28;20112;-75
2023/08/28 08:20:58;;;;;;;4.28;2.72;;;;;;;;;;4997389;28;20026;-75
2023/08/28 08:23:23;;;;;;;2.30;2.10;;;;;;;;;;4991485;28;20038;-76
2023/08/28 08:25:49;;;;;;;1.30;1.20;;;;;;;;;;4995040;28;20092;-75
2023/08/28 08:28:15;;;;;;;1.67;1.52;;;;;;;;;;5001782;28;20562;-75
2023/08/28 08:30:41;;;;;;;1.58;1.48;;;;;;;;;;4995521;28;20124;-75
2023/08/28 08:33:06;;;;;;;1.92;1.60;;;;;;;;;;5063395;28;20106;-76
2023/08/28 08:35:32;;;;;;;1.38;1.27;;;;;;;;;;5004071;28;20030;-75
2023/08/28 08:37:58;;;;;;;1.35;1.27;;;;;;;;;;4998484;28;20045;-76
2023/08/28 08:40:25;;;;;;;2.88;1.48;;;;;;;;;;4999083;28;20496;-76
2023/08/28 08:42:51;;;;;;;3.70;1.85;;;;;;;;;;4997824;28;20224;-75
2023/08/28 08:45:17;;;;;;;1.65;1.45;;;;;;;;;;4997939;28;20030;-75
2023/08/28 08:47:49;;;;;;;1.60;1.50;;;;;;;;;;4996837;28;20034;-75
2023/08/28 08:50:18;;;;;;;1.10;1.10;;;;;;;;;;5067805;28;20472;-76
2023/08/28 08:52:45;;;;;;;1.33;1.25;;;;;;;;;;4997484;28;20537;-75
2023/08/28 08:55:25;;;;;;;1.10;1.00;;;;;;;;;;4997048;28;20095;-76
2023/08/28 08:57:55;;;;;;;1.10;1.10;;;;;;;;;;4998387;28;20062;-76
2023/08/28 09:00:21;;;;;;;1.00;1.00;;;;;;;;;;4996482;28;20022;-76
2023/08/28 09:02:47;;;;;;;1.33;1.33;;;;;;;;;;4999812;28;20079;-77
2023/08/28 09:05:14;;;;;;;1.13;1.13;;;;;;;;;;5000069;28;20360;-77
2023/08/28 09:07:42;;;;;;;1.52;1.40;;;;;;;;;;5000626;28;20294;-77
2023/08/28 09:10:08;;;;;;;1.55;1.45;;;;;;;;;;4997895;28;20037;-77
2023/08/28 09:12:33;;;;;;;4.03;1.23;;;;;;;;;;5000852;28;20038;-78
2023/08/28 09:14:59;;;;;;;1.10;1.10;;;;;;;;;;4995101;28;20026;-77
2023/08/28 09:17:26;;;;;;;1.58;1.48;;;;;;;;;;4998156;28;20030;-76
2023/08/28 09:19:52;;;;;;;1.10;1.10;;;;;;;;;;4995977;28;20385;-77
2023/08/28 09:22:21;;;;;;;1.58;1.48;;;;;;;;;;4993250;28;20038;-77
2023/08/28 09:24:50;;;;;;;1.52;1.42;;;;;;;;;;4990821;28;20563;-77
2023/08/28 09:27:16;;;;;;;1.45;1.35;;;;;;;;;;4998145;28;20113;-77
2023/08/28 09:29:41;;;;;;;1.30;1.30;;;;;;;;;;4989668;28;20097;-77
2023/08/28 09:32:06;;;;;;;1.42;1.33;;;;;;;;;;4989611;28;20562;-77
2023/08/28 09:34:37;;;;;;;1.50;1.40;;;;;;;;;;4994850;28;20104;-77
2023/08/28 09:37:03;;;;;;;1.58;1.50;;;;;;;;;;4995784;28;20030;-78
2023/08/28 09:39:28;;;;;;;1.55;1.45;;;;;;;;;;5002507;28;20040;-77
2023/08/28 09:41:53;;;;;;;1.45;1.30;;;;;;;;;;4988421;28;20044;-77
2023/08/28 09:44:19;;;;;;;1.48;1.38;;;;;;;;;;5053683;28;20458;-77
2023/08/28 09:46:46;;;;;;;1.70;1.60;;;;;;;;;;4997235;28;20034;-77
2023/08/28 09:49:13;;;;;;;2.15;1.70;;;;;;;;;;4995963;28;20061;-77
2023/08/28 09:51:42;;;;;;;1.60;1.50;;;;;;;;;;5058896;28;20034;-78
2023/08/28 09:54:09;;;;;;;1.60;1.50;;;;;;;;;;4990466;28;20069;-78
2023/08/28 09:56:35;;;;;;;1.73;1.63;;;;;;;;;;4997818;28;20471;-77
2023/08/28 09:59:04;;;;;;;2.22;2.13;;;;;;;;;;4994730;28;20046;-78
2023/08/28 10:01:35;;;;;;;1.90;1.80;;;;;;;;;;4991207;28;20517;-78
2023/08/28 10:04:01;;;;;;;1.20;1.20;;;;;;;;;;4992507;28;20106;-76
2023/08/28 10:06:28;;;;;;;1.50;1.40;;;;;;;;;;4999083;28;20033;-78
2023/08/28 10:08:58;;;;;;;1.85;1.60;;;;;;;;;;5005059;28;20079;-77
2023/08/28 10:11:29;;;;;;;1.20;1.20;;;;;;;;;;5006735;28;20045;-78
2023/08/28 10:13:55;;;;;;;1.20;1.20;;;;;;;;;;4997346;28;20204;-77
2023/08/28 10:16:24;;;;;;;1.40;1.33;;;;;;;;;;4997895;28;20058;-77
2023/08/28 10:18:57;;;;;;;1.45;1.35;;;;;;;;;;5002099;28;20593;-77
2023/08/28 10:21:22;;;;;;;1.52;1.42;;;;;;;;;;5065165;28;20028;-78
2023/08/28 10:23:49;;;;;;;1.42;1.33;;;;;;;;;;5001296;28;20434;-77
2023/08/28 10:26:15;;;;;;;1.73;1.63;;;;;;;;;;4993841;28;20033;-77
2023/08/28 10:28:41;;;;;;;1.80;1.50;;;;;;;;;;4999717;28;20038;-77
2023/08/28 10:31:08;;;;;;;1.60;1.50;;;;;;;;;;4998886;28;20492;-77
2023/08/28 10:33:36;;;;;;;2.00;1.70;;;;;;;;;;4999592;28;20503;-77
2023/08/28 10:36:01;;;;;;;1.10;1.10;;;;;;;;;;4999450;28;20460;-76
2023/08/28 10:38:27;;;;;;;1.63;1.30;;;;;;;;;;5000808;28;20030;-76
2023/08/28 10:40:55;;;;;;;1.98;1.73;;;;;;;;;;5008843;28;20052;-75
2023/08/28 10:43:23;;;;;;;1.50;1.45;;;;;;;;;;4999228;28;20034;-75
2023/08/28 10:45:51;;;;;;;2.28;1.63;;;;;;;;;;5001637;28;20411;-76
2023/08/28 10:48:17;;;;;;;1.65;1.55;;;;;;;;;;4994357;28;20022;-77
2023/08/28 10:50:42;;;;;;;2.00;1.80;;;;;;;;;;4997867;28;20443;-77
2023/08/28 10:53:13;;;;;;;2.78;1.77;;;;;;;;;;4994641;28;20088;-77
2023/08/28 10:55:38;;;;;;;1.77;1.63;;;;;;;;;;4998558;28;20065;-77
2023/08/28 10:58:03;;;;;;;1.50;1.40;;;;;;;;;;5002766;28;20039;-77
2023/08/28 11:00:29;;;;;;;1.63;1.50;;;;;;;;;;5000606;28;20033;-76
2023/08/28 11:03:08;;;;;;;1.42;1.33;;;;;;;;;;5001831;28;20022;-76
2023/08/28 11:05:35;;;;;;;1.90;1.65;;;;;;;;;;4997979;28;20088;-75
2023/08/28 11:08:04;;;;;;;1.10;1.10;;;;;;;;;;4996328;28;20106;-76
2023/08/28 11:10:31;;;;;;;1.50;1.40;;;;;;;;;;4999428;28;20026;-76
2023/08/28 11:13:07;;;;;;;1.27;1.17;;;;;;;;;;5001401;28;20059;-76
2023/08/28 11:15:40;;;;;;;3.25;2.92;;;;;;;;;;4995938;28;20542;-76
2023/08/28 11:18:24;;;;;;;1.67;1.58;;;;;;;;;;5000644;28;20503;-76
2023/08/28 11:21:08;;;;;;;2.67;1.90;;;;;;;;;;5069035;28;20055;-76
2023/08/28 11:23:42;;;;;;;1.42;1.40;;;;;;;;;;5001594;28;20484;-75
2023/08/28 11:26:26;;;;;;;1.15;1.15;;;;;;;;;;4995489;28;20107;-75
2023/08/28 11:28:52;;;;;;;;;;;;;;;;;;4996648;28;20083;-74
2023/08/28 11:31:19;;;;;;;2.42;1.38;;;;;;;;;;4997903;28;19925;-74
2023/08/28 11:33:49;;;;;;;1.42;1.35;;;;;;;;;;4999197;28;20548;-74
2023/08/28 11:36:17;;;;;;;1.30;1.20;;;;;;;;;;4996308;28;20026;-75
2023/08/28 11:38:43;;;;;;;1.00;1.00;;;;;;;;;;4986203;28;20092;-75
2023/08/28 11:41:10;;;;;;;1.30;1.20;;;;;;;;;;4997697;28;20064;-76
2023/08/28 11:43:37;;;;;;;1.27;1.17;;;;;;;;;;4983972;28;20047;-75
2023/08/28 11:46:03;;;;;;;2.80;1.30;;;;;;;;;;5062589;28;20035;-74
2023/08/28 11:48:36;;;;;;;2.17;1.35;;;;;;;;;;4992798;28;20476;-75
2023/08/28 11:51:03;;;;;;;1.63;1.52;;;;;;;;;;4991453;28;20101;-76
2023/08/28 11:53:30;;;;;;;1.60;1.50;;;;;;;;;;4996221;28;20129;-75
2023/08/28 11:55:56;;;;;;;1.50;1.40;;;;;;;;;;5061414;28;20049;-76
2023/08/28 11:58:23;;;;;;;1.60;1.50;;;;;;;;;;5001676;28;20038;-76
2023/08/28 12:00:48;;;;;;;2.05;1.88;;;;;;;;;;4994458;28;20365;-75
2023/08/28 12:03:20;;;;;;;3.15;1.95;;;;;;;;;;5061518;28;20033;-76
2023/08/28 12:05:45;;;;;;;4.60;1.65;;;;;;;;;;5062131;28;20030;-75
2023/08/28 12:08:12;;;;;;;1.88;1.77;;;;;;;;;;4992401;28;20033;-76
2023/08/28 12:10:38;;;;;;;1.77;1.67;;;;;;;;;;4995745;28;20396;-76
2023/08/28 12:13:04;;;;;;;2.78;2.28;;;;;;;;;;4988862;28;20108;-75
2023/08/28 12:15:31;;;;;;;2.53;2.08;;;;;;;;;;4992074;28;20500;-75
2023/08/28 12:18:06;;;;;;;1.80;1.70;;;;;;;;;;4991062;28;20078;-75
2023/08/28 12:20:32;;;;;;;1.80;1.70;;;;;;;;;;4998871;28;20048;-77
2023/08/28 12:22:58;;;;;;;1.70;1.60;;;;;;;;;;4999626;28;20041;-74
2023/08/28 12:25:35;;;;;;;1.90;1.80;;;;;;;;;;4997238;28;20066;-75
2023/08/28 12:28:05;;;;;;;2.22;1.90;;;;;;;;;;4999477;28;20430;-74
2023/08/28 12:30:31;;;;;;;3.05;1.98;;;;;;;;;;4997683;28;20046;-74
2023/08/28 12:32:56;;;;;;;2.05;1.83;;;;;;;;;;5065377;28;20061;-74
2023/08/28 12:35:25;;;;;;;2.28;2.00;;;;;;;;;;4998963;28;20677;-75
2023/08/28 12:37:51;;;;;;;1.75;1.50;;;;;;;;;;4981969;28;20069;-75
2023/08/28 12:40:17;;;;;;;1.60;1.50;;;;;;;;;;4990926;28;20427;-75
2023/08/28 12:42:42;;;;;;;1.90;1.80;;;;;;;;;;4987063;28;20039;-75
2023/08/28 12:45:08;;;;;;;1.60;1.50;;;;;;;;;;5051272;28;20022;-75
2023/08/28 12:47:33;;;;;;;1.73;1.30;;;;;;;;;;4991677;28;20034;-75
2023/08/28 12:49:58;;;;;;;1.50;1.40;;;;;;;;;;4990675;28;20946;-74
2023/08/28 12:52:24;;;;;;;1.70;1.60;;;;;;;;;;4993241;28;20034;-75
2023/08/28 12:54:50;;;;;;;2.33;1.80;;;;;;;;;;4995396;28;20060;-74
2023/08/28 12:57:15;;;;;;;1.60;1.42;;;;;;;;;;4991542;28;20223;-74
2023/08/28 12:59:40;;;;;;;1.45;1.35;;;;;;;;;;4995673;28;20369;-75
2023/08/28 13:02:09;;;;;;;1.80;1.60;;;;;;;;;;4999104;28;20038;-74
2023/08/28 13:04:35;;;;;;;2.00;1.20;;;;;;;;;;5002878;28;20118;-75
2023/08/28 13:07:00;;;;;;;1.58;1.48;;;;;;;;;;5001781;28;20079;-75
2023/08/28 13:09:25;;;;;;;4.32;1.48;;;;;;;;;;4992574;28;20037;-75
2023/08/28 13:11:51;;;;;;;1.60;1.50;;;;;;;;;;4998743;28;20107;-74
2023/08/28 13:14:16;;;;;;;2.08;1.90;;;;;;;;;;4996565;28;20408;-74
2023/08/28 13:16:42;;;;;;;5.18;2.08;;;;;;;;;;4989539;28;20654;-75
2023/08/28 13:19:07;;;;;;;1.65;1.55;;;;;;;;;;5003986;28;20030;-74
2023/08/28 13:21:33;;;;;;;1.90;1.80;;;;;;;;;;4997325;28;20250;-74
2023/08/28 13:23:58;;;;;;;1.52;1.42;;;;;;;;;;5066171;28;20040;-74
2023/08/28 13:26:23;;;;;;;1.40;1.30;;;;;;;;;;4993851;28;20030;-74
2023/08/28 13:28:49;;;;;;;1.35;1.25;;;;;;;;;;4997625;28;20511;-76
2023/08/28 13:31:16;;;;;;;1.50;1.40;;;;;;;;;;4990293;28;20470;-75
2023/08/28 13:33:41;;;;;;;1.60;1.50;;;;;;;;;;4988837;28;20052;-74
2023/08/28 13:36:07;;;;;;;1.60;1.50;;;;;;;;;;5055149;28;20014;-75
2023/08/28 13:38:34;;;;;;;3.08;1.83;;;;;;;;;;4988083;28;20054;-74
2023/08/28 13:41:00;;;;;;;1.75;1.65;;;;;;;;;;4995566;28;20042;-74
2023/08/28 13:43:26;;;;;;;1.30;1.20;;;;;;;;;;5051844;28;20034;-75
2023/08/28 13:45:51;;;;;;;3.05;1.67;;;;;;;;;;4999492;28;20047;-74
2023/08/28 13:48:17;;;;;;;1.55;1.45;;;;;;;;;;5061560;28;20443;-74
2023/08/28 13:50:43;;;;;;;1.50;1.40;;;;;;;;;;4998609;28;20547;-75
2023/08/28 13:53:08;;;;;;;1.50;1.40;;;;;;;;;;4995908;28;20043;-74
2023/08/28 13:55:34;;;;;;;1.52;1.42;;;;;;;;;;4997591;28;20042;-74
2023/08/28 13:57:59;;;;;;;1.60;1.50;;;;;;;;;;5064787;28;20045;-74
2023/08/28 14:00:24;;;;;;;1.85;1.70;;;;;;;;;;4992651;28;20038;-75
2023/08/28 14:02:50;;;;;;;1.98;1.55;;;;;;;;;;4997954;28;20030;-74
2023/08/28 14:05:16;;;;;;;1.92;1.50;;;;;;;;;;5067652;28;20168;-74
2023/08/28 14:07:42;;;;;;;1.48;1.38;;;;;;;;;;4995694;28;20102;-74
2023/08/28 14:10:08;;;;;;;4.20;1.60;;;;;;;;;;4995492;28;20058;-75
2023/08/28 14:12:34;;;;;;;1.67;1.45;;;;;;;;;;5052749;28;20456;-75
2023/08/28 14:15:01;;;;;;;1.85;1.75;;;;;;;;;;4997906;28;20045;-74
2023/08/28 14:17:26;;;;;;;1.55;1.45;;;;;;;;;;4992102;28;20519;-75
2023/08/28 14:19:52;;;;;;;1.30;1.20;;;;;;;;;;4999052;28;20042;-74
2023/08/28 14:22:17;;;;;;;1.05;1.05;;;;;;;;;;4991572;28;20220;-74
2023/08/28 14:24:43;;;;;;;1.50;1.40;;;;;;;;;;4997669;28;20125;-74
2023/08/28 14:27:09;;;;;;;1.20;1.20;;;;;;;;;;4987225;28;20023;-74
2023/08/28 14:29:34;;;;;;;1.42;1.33;;;;;;;;;;4993461;28;20049;-74
2023/08/28 14:31:59;;;;;;;1.10;1.10;;;;;;;;;;4993557;28;20092;-74
2023/08/28 14:34:24;;;;;;;1.25;1.15;;;;;;;;;;4992297;28;20068;-74
2023/08/28 14:36:50;;;;;;;1.38;1.27;;;;;;;;;;4994532;28;20494;-74
2023/08/28 14:39:15;;;;;;;2.25;1.15;;;;;;;;;;4999044;28;20026;-75